Time;durP1;ratioP1;P1;durP2;ratioP2;P2;SDS_P1;SDS_P2;PMS_P1;PMS_P2;Temp;Humidity;BMP_temperature;BMP_pressure;BME280_temperature;BME280_humidity;BME280_pressure;Samples;Min_cycle;Max_cycle;Signal;HPM_P1;HPM_P2
2022/09/18 04:01:02;;;;;;;0.50;0.50;;;9.70;99.90;;;;;;5671460;23;20238;-72
2022/09/18 04:03:29;;;;;;;2.05;0.82;;;9.70;99.90;;;;;;4988667;28;20211;-71
2022/09/18 04:05:56;;;;;;;5.47;0.75;;;9.70;99.90;;;;;;4987334;28;20230;-71
2022/09/18 04:08:23;;;;;;;0.20;0.20;;;9.60;99.90;;;;;;4975837;28;20219;-71
2022/09/18 04:10:50;;;;;;;1.00;0.90;;;9.70;99.90;;;;;;4988830;28;20693;-72
2022/09/18 04:13:17;;;;;;;0.60;0.60;;;9.70;99.90;;;;;;4973272;28;20215;-72
2022/09/18 04:15:44;;;;;;;0.93;0.40;;;9.70;99.90;;;;;;4970898;28;20583;-73
2022/09/18 04:18:12;;;;;;;2.17;0.57;;;9.70;99.90;;;;;;4973787;28;20230;-70
2022/09/18 04:20:39;;;;;;;0.60;0.60;;;9.70;99.90;;;;;;4978682;28;20258;-70
2022/09/18 04:23:05;;;;;;;5.05;1.52;;;9.60;99.90;;;;;;4971902;28;20213;-70
2022/09/18 04:25:32;;;;;;;0.50;0.50;;;9.60;99.90;;;;;;4978261;28;20256;-70
2022/09/18 04:27:59;;;;;;;0.22;0.22;;;9.60;99.90;;;;;;4971015;28;20225;-69
2022/09/18 04:30:26;;;;;;;0.20;0.20;;;9.50;99.90;;;;;;4970599;28;20206;-69
2022/09/18 04:32:52;;;;;;;3.22;0.60;;;9.50;99.90;;;;;;4969577;28;20219;-69
2022/09/18 04:35:20;;;;;;;3.30;0.40;;;9.40;99.90;;;;;;4968268;28;20207;-69
2022/09/18 04:37:47;;;;;;;0.32;0.30;;;9.40;99.90;;;;;;4968841;28;20207;-69
2022/09/18 04:40:14;;;;;;;2.97;1.15;;;9.40;99.90;;;;;;4956421;28;20226;-69
2022/09/18 04:42:40;;;;;;;7.20;0.65;;;9.40;99.90;;;;;;4968962;28;20221;-69
2022/09/18 04:45:09;;;;;;;3.13;0.63;;;9.40;99.90;;;;;;4972310;28;20232;-69
2022/09/18 04:47:36;;;;;;;9.98;0.98;;;9.40;99.90;;;;;;4969469;28;20210;-69
2022/09/18 04:50:03;;;;;;;10.48;0.88;;;9.40;99.90;;;;;;4959565;28;21740;-69
2022/09/18 04:52:31;;;;;;;0.28;0.28;;;9.30;99.90;;;;;;4971418;28;20317;-69
2022/09/18 04:54:58;;;;;;;1.48;0.40;;;9.30;99.90;;;;;;4963038;28;20215;-69
2022/09/18 04:57:25;;;;;;;0.90;0.57;;;9.30;99.90;;;;;;4972923;28;20205;-69
2022/09/18 04:59:51;;;;;;;2.53;0.73;;;9.20;99.90;;;;;;4968234;28;20219;-69
2022/09/18 05:02:19;;;;;;;1.05;0.55;;;9.20;99.90;;;;;;4978250;28;20233;-70
2022/09/18 05:04:45;;;;;;;7.82;0.60;;;9.20;99.90;;;;;;4979690;28;20210;-70
2022/09/18 05:07:12;;;;;;;15.75;1.23;;;9.10;99.90;;;;;;4978870;28;20234;-70
2022/09/18 05:09:40;;;;;;;0.22;0.22;;;9.10;99.90;;;;;;4968780;28;20207;-70
2022/09/18 05:12:08;;;;;;;0.50;0.50;;;9.10;99.90;;;;;;4969034;28;20226;-69
2022/09/18 05:14:35;;;;;;;0.50;0.50;;;9.10;99.90;;;;;;4971200;28;20222;-70
2022/09/18 05:17:01;;;;;;;0.80;0.80;;;9.10;99.90;;;;;;4972367;28;20556;-70
2022/09/18 05:19:28;;;;;;;0.45;0.45;;;9.10;99.90;;;;;;4963820;28;20215;-70
2022/09/18 05:21:55;;;;;;;0.73;0.73;;;9.10;99.90;;;;;;4971288;28;20230;-70
2022/09/18 05:24:22;;;;;;;3.03;0.63;;;9.20;99.90;;;;;;4971492;28;20227;-70
2022/09/18 05:26:50;;;;;;;2.15;0.68;;;9.30;99.90;;;;;;4970133;28;20688;-70
2022/09/18 05:29:16;;;;;;;0.63;0.63;;;9.30;99.90;;;;;;4963791;28;20212;-70
2022/09/18 05:31:43;;;;;;;2.22;0.68;;;9.30;99.90;;;;;;4971011;28;20259;-70
2022/09/18 05:34:10;;;;;;;0.88;0.28;;;9.30;99.90;;;;;;4970646;28;20217;-70
2022/09/18 05:36:36;;;;;;;7.60;0.80;;;9.30;99.90;;;;;;4970692;28;20202;-69
2022/09/18 05:39:03;;;;;;;2.25;1.33;;;9.30;99.90;;;;;;4965410;28;20650;-70
2022/09/18 05:41:30;;;;;;;1.23;0.73;;;9.30;99.90;;;;;;4967195;28;20245;-70
2022/09/18 05:43:58;;;;;;;1.10;0.68;;;9.40;99.90;;;;;;4965346;28;20217;-69
2022/09/18 05:46:25;;;;;;;0.47;0.47;;;9.50;99.90;;;;;;4960238;28;20237;-69
2022/09/18 05:48:51;;;;;;;0.20;0.20;;;9.50;99.90;;;;;;4969071;28;20216;-70
2022/09/18 05:51:18;;;;;;;0.90;0.63;;;9.50;99.90;;;;;;4974798;28;20226;-69
2022/09/18 05:53:47;;;;;;;10.40;1.48;;;9.50;99.90;;;;;;4971772;28;20306;-70
2022/09/18 05:56:15;;;;;;;0.20;0.20;;;9.60;99.90;;;;;;4970526;28;20291;-70
2022/09/18 05:58:42;;;;;;;2.60;0.50;;;9.60;99.90;;;;;;4971322;28;20218;-70
2022/09/18 06:01:13;;;;;;;0.65;0.65;;;9.70;99.90;;;;;;4969106;28;20249;-70
2022/09/18 06:03:39;;;;;;;2.30;0.93;;;9.80;99.90;;;;;;4967495;28;20235;-70
2022/09/18 06:06:06;;;;;;;1.95;0.88;;;9.90;99.90;;;;;;4966373;28;20254;-70
2022/09/18 06:08:34;;;;;;;4.15;0.45;;;9.90;99.90;;;;;;4978364;28;20211;-70
2022/09/18 06:11:02;;;;;;;2.47;0.82;;;10.00;99.90;;;;;;4983070;28;20231;-70
2022/09/18 06:13:29;;;;;;;2.15;0.32;;;10.00;99.90;;;;;;4984484;28;20226;-70
2022/09/18 06:15:56;;;;;;;9.00;0.55;;;10.00;99.90;;;;;;4986571;28;20207;-70
2022/09/18 06:18:24;;;;;;;1.95;0.43;;;10.00;99.90;;;;;;4984147;28;20242;-70
2022/09/18 06:20:54;;;;;;;1.40;0.77;;;10.10;99.90;;;;;;4979213;28;20296;-70
2022/09/18 06:23:21;;;;;;;0.60;0.60;;;10.20;99.90;;;;;;4977288;28;20215;-70
2022/09/18 06:25:48;;;;;;;2.00;0.65;;;10.30;99.90;;;;;;4972376;28;20234;-70
2022/09/18 06:28:15;;;;;;;1.65;1.17;;;10.40;99.90;;;;;;4974586;28;20219;-69
2022/09/18 06:30:41;;;;;;;2.47;1.35;;;10.40;99.90;;;;;;4973652;28;20609;-70
2022/09/18 06:33:10;;;;;;;1.38;0.50;;;10.50;99.90;;;;;;4974369;28;20215;-71
2022/09/18 06:35:38;;;;;;;3.53;0.63;;;10.50;99.90;;;;;;4969455;28;20574;-70
2022/09/18 06:38:06;;;;;;;4.25;0.50;;;10.50;99.90;;;;;;4969445;28;20230;-70
2022/09/18 06:40:34;;;;;;;0.45;0.45;;;10.70;99.90;;;;;;4971058;28;20294;-70
2022/09/18 06:43:02;;;;;;;0.93;0.30;;;10.80;99.90;;;;;;4963294;28;20687;-70
2022/09/18 06:45:30;;;;;;;0.60;0.60;;;10.80;99.90;;;;;;4962910;28;20212;-71
2022/09/18 06:48:01;;;;;;;2.65;0.70;;;10.80;99.90;;;;;;4969676;28;20638;-71
2022/09/18 06:50:28;;;;;;;0.90;0.65;;;10.70;99.90;;;;;;4970506;28;20214;-70
2022/09/18 06:53:02;;;;;;;2.85;1.23;;;10.70;99.90;;;;;;4975025;28;20682;-71
2022/09/18 06:55:30;;;;;;;0.20;0.20;;;10.60;99.90;;;;;;4968514;28;20207;-71
2022/09/18 06:57:58;;;;;;;0.40;0.40;;;10.50;99.90;;;;;;4972390;28;20256;-70
2022/09/18 07:00:25;;;;;;;0.30;0.30;;;10.50;99.90;;;;;;4989368;28;20225;-70
2022/09/18 07:02:56;;;;;;;0.20;0.20;;;10.50;99.90;;;;;;4993049;28;20203;-70
2022/09/18 07:05:23;;;;;;;0.40;0.40;;;10.60;99.90;;;;;;4993854;28;20220;-70
2022/09/18 07:07:50;;;;;;;0.50;0.50;;;10.60;99.90;;;;;;4991760;28;20238;-70
2022/09/18 07:10:18;;;;;;;1.65;0.63;;;10.60;99.90;;;;;;4990137;28;20204;-70
2022/09/18 07:12:47;;;;;;;0.88;0.88;;;10.70;99.90;;;;;;4991387;28;20235;-71
2022/09/18 07:15:14;;;;;;;7.05;0.98;;;10.90;99.90;;;;;;4993592;28;20211;-71
2022/09/18 07:17:41;;;;;;;0.32;0.30;;;11.00;99.90;;;;;;4987253;28;20198;-71
2022/09/18 07:20:09;;;;;;;0.55;0.55;;;11.10;99.90;;;;;;4991491;28;20210;-71
2022/09/18 07:22:36;;;;;;;4.57;0.88;;;11.10;99.90;;;;;;4989546;28;20222;-68
2022/09/18 07:25:03;;;;;;;5.55;1.05;;;11.00;99.90;;;;;;4987269;28;20210;-69
2022/09/18 07:27:31;;;;;;;1.20;1.10;;;11.00;99.90;;;;;;4973169;28;20228;-69
2022/09/18 07:29:58;;;;;;;1.55;0.63;;;10.90;99.90;;;;;;4969912;28;20262;-70
2022/09/18 07:32:25;;;;;;;0.65;0.65;;;10.90;99.90;;;;;;4973087;28;20245;-70
2022/09/18 07:34:52;;;;;;;0.32;0.32;;;11.00;99.90;;;;;;4973801;28;20212;-70
2022/09/18 07:37:19;;;;;;;0.30;0.30;;;11.00;99.90;;;;;;4972869;28;20579;-70
2022/09/18 07:39:46;;;;;;;1.30;0.57;;;11.10;99.90;;;;;;4980179;28;20207;-70
2022/09/18 07:42:13;;;;;;;0.52;0.52;;;11.20;99.90;;;;;;4967667;28;20286;-70
2022/09/18 07:44:41;;;;;;;0.50;0.50;;;11.20;99.90;;;;;;4971814;28;20208;-70
2022/09/18 07:47:08;;;;;;;0.57;0.57;;;11.10;99.90;;;;;;4973932;28;20249;-70
2022/09/18 07:49:37;;;;;;;3.78;0.52;;;11.10;99.90;;;;;;4973615;28;20216;-70
2022/09/18 07:52:04;;;;;;;2.05;0.47;;;11.20;99.90;;;;;;4968774;28;20586;-70
2022/09/18 07:54:31;;;;;;;0.30;0.30;;;11.30;99.90;;;;;;4972351;28;20211;-69
2022/09/18 07:56:58;;;;;;;0.73;0.73;;;11.40;99.90;;;;;;4973656;28;20203;-69
2022/09/18 07:59:24;;;;;;;4.93;0.50;;;11.40;99.90;;;;;;4971361;28;20294;-69
2022/09/18 08:01:54;;;;;;;5.45;0.68;;;11.50;99.90;;;;;;4974576;28;20250;-69
2022/09/18 08:04:21;;;;;;;0.25;0.25;;;11.50;99.90;;;;;;4971884;28;20234;-70
2022/09/18 08:06:51;;;;;;;2.75;1.08;;;11.70;99.90;;;;;;4972921;28;20218;-70
2022/09/18 08:09:18;;;;;;;0.82;0.82;;;11.60;99.90;;;;;;4971731;28;20211;-72
2022/09/18 08:11:45;;;;;;;2.75;0.43;;;11.60;99.90;;;;;;4968615;28;20246;-69
2022/09/18 08:14:12;;;;;;;1.00;0.40;;;11.60;99.90;;;;;;4968090;28;20217;-70
2022/09/18 08:16:39;;;;;;;0.63;0.55;;;11.60;99.90;;;;;;4971100;28;20201;-70
2022/09/18 08:19:07;;;;;;;0.82;0.82;;;11.60;99.90;;;;;;4964577;28;20205;-70
2022/09/18 08:21:34;;;;;;;6.10;0.75;;;11.60;99.90;;;;;;4971067;28;20233;-70
2022/09/18 08:24:01;;;;;;;4.93;0.73;;;11.60;99.90;;;;;;4963337;28;20214;-70
2022/09/18 08:26:27;;;;;;;2.78;1.38;;;11.60;99.90;;;;;;4969685;28;20213;-70
2022/09/18 08:28:54;;;;;;;0.43;0.43;;;11.70;99.90;;;;;;4971765;28;20227;-70
2022/09/18 08:31:21;;;;;;;0.30;0.30;;;11.90;99.90;;;;;;4973378;28;20232;-70
2022/09/18 08:33:47;;;;;;;0.50;0.30;;;12.00;99.90;;;;;;4968483;28;20207;-70
2022/09/18 08:36:15;;;;;;;3.50;0.30;;;12.00;99.90;;;;;;4974922;28;20214;-70
2022/09/18 08:38:42;;;;;;;0.52;0.50;;;11.90;99.90;;;;;;4982905;28;20228;-70
2022/09/18 08:41:22;;;;;;;0.47;0.35;;;11.90;99.90;;;;;;4972527;28;20238;-71
2022/09/18 08:43:58;;;;;;;0.30;0.30;;;11.90;99.90;;;;;;4963000;28;20564;-70
2022/09/18 08:46:30;;;;;;;0.55;0.55;;;12.10;99.90;;;;;;4971852;28;20214;-70
2022/09/18 08:49:04;;;;;;;1.63;0.52;;;12.10;99.90;;;;;;4971397;28;20225;-70
2022/09/18 08:51:37;;;;;;;2.45;1.08;;;12.10;99.90;;;;;;4972693;28;20254;-71
2022/09/18 08:54:18;;;;;;;0.85;0.85;;;12.00;99.90;;;;;;4971481;28;20694;-70
2022/09/18 08:56:45;;;;;;;1.30;0.60;;;12.00;99.90;;;;;;4963949;28;20214;-70
2022/09/18 08:59:18;;;;;;;3.05;0.40;;;12.10;99.90;;;;;;4970949;28;20213;-71
2022/09/18 09:01:51;;;;;;;0.50;0.50;;;12.20;99.90;;;;;;4965014;28;20249;-71
2022/09/18 09:04:24;;;;;;;2.30;0.40;;;12.20;99.90;;;;;;4969586;28;20210;-71
2022/09/18 09:07:06;;;;;;;6.53;1.52;;;12.20;99.90;;;;;;4971471;28;20238;-71
2022/09/18 09:09:53;;;;;;;0.80;0.80;;;12.10;99.90;;;;;;4975533;28;20529;-71
2022/09/18 09:12:27;;;;;;;2.15;0.70;;;12.10;99.90;;;;;;4969730;28;20256;-71
2022/09/18 09:15:15;;;;;;;1.85;0.60;;;12.00;99.90;;;;;;4982946;28;20248;-71
2022/09/18 09:17:49;;;;;;;0.43;0.43;;;12.10;99.90;;;;;;4963573;28;20212;-71
2022/09/18 09:20:21;;;;;;;0.95;0.88;;;12.30;99.90;;;;;;4968476;28;20212;-72
2022/09/18 09:23:00;;;;;;;3.40;1.25;;;12.40;99.90;;;;;;4970840;28;20255;-68
2022/09/18 09:25:37;;;;;;;2.53;0.82;;;12.50;99.90;;;;;;4970193;28;20214;-70
2022/09/18 09:28:13;;;;;;;1.70;0.60;;;12.60;99.90;;;;;;4974285;28;20229;-70
2022/09/18 09:30:41;;;;;;;0.43;0.43;;;12.70;99.90;;;;;;4971743;28;20233;-69
2022/09/18 09:33:18;;;;;;;0.70;0.70;;;12.80;99.90;;;;;;4974361;28;20217;-68
2022/09/18 09:35:47;;;;;;;0.30;0.30;;;13.10;99.90;;;;;;4973888;28;20480;-68
2022/09/18 09:38:30;;;;;;;0.50;0.50;;;13.30;99.90;;;;;;4975166;28;20453;-68
2022/09/18 09:40:59;;;;;;;0.20;0.20;;;13.50;99.90;;;;;;4970431;28;20509;-68
2022/09/18 09:43:31;;;;;;;0.30;0.30;;;13.70;99.90;;;;;;4970208;28;20943;-68
2022/09/18 09:46:04;;;;;;;5.93;0.60;;;13.70;99.90;;;;;;4970072;28;20962;-70
2022/09/18 09:48:40;;;;;;;2.60;0.53;;;13.80;99.90;;;;;;4970072;28;20512;-68
2022/09/18 09:51:15;;;;;;;2.53;0.40;;;13.70;99.90;;;;;;4971299;28;20524;-67
2022/09/18 09:53:44;;;;;;;0.20;0.20;;;13.60;99.90;;;;;;4973482;28;20478;-68
2022/09/18 09:56:19;;;;;;;0.20;0.20;;;13.60;99.90;;;;;;4967179;28;20501;-68
2022/09/18 09:58:55;;;;;;;0.37;0.30;;;13.40;99.90;;;;;;4964440;28;20470;-68
2022/09/18 10:01:26;;;;;;;2.83;0.40;;;13.30;99.90;;;;;;4969976;28;20498;-68
2022/09/18 10:04:05;;;;;;;0.60;0.50;;;13.10;99.90;;;;;;4970929;28;20468;-68
2022/09/18 10:06:41;;;;;;;0.87;0.43;;;13.00;99.90;;;;;;4970544;28;20508;-68
2022/09/18 10:09:15;;;;;;;0.50;0.50;;;12.90;99.90;;;;;;4971211;28;20501;-68
2022/09/18 10:11:49;;;;;;;0.10;0.10;;;12.70;99.90;;;;;;4978043;28;20229;-68
2022/09/18 10:14:19;;;;;;;7.00;0.50;;;12.30;99.90;;;;;;4969403;28;20205;-68
2022/09/18 10:16:49;;;;;;;0.30;0.30;;;11.80;99.90;;;;;;4980981;28;20216;-68
2022/09/18 10:19:19;;;;;;;0.65;0.43;;;11.50;99.90;;;;;;4974683;28;20556;-68
2022/09/18 10:21:47;;;;;;;1.55;0.95;;;11.30;99.90;;;;;;4984763;23;20234;-67
2022/09/18 10:24:21;;;;;;;0.40;0.40;;;11.10;99.90;;;;;;4982439;28;20601;-68
2022/09/18 10:26:51;;;;;;;1.65;1.55;;;10.90;99.90;;;;;;4982584;28;20207;-68
2022/09/18 10:29:19;;;;;;;0.28;0.28;;;10.90;99.90;;;;;;4990619;28;20230;-68
2022/09/18 10:31:47;;;;;;;13.48;0.75;;;10.80;99.90;;;;;;4986786;28;20306;-72
2022/09/18 10:34:32;;;;;;;0.45;0.45;;;10.80;99.90;;;;;;4989671;28;20289;-72
2022/09/18 10:36:59;;;;;;;2.15;0.70;;;10.70;99.90;;;;;;4984900;28;20218;-72
2022/09/18 10:39:29;;;;;;;1.55;0.93;;;10.70;99.90;;;;;;4987240;28;20569;-72
2022/09/18 10:42:00;;;;;;;0.55;0.55;;;10.60;99.90;;;;;;4984818;28;20712;-73
2022/09/18 10:44:29;;;;;;;0.50;0.50;;;10.50;99.90;;;;;;4981766;28;20283;-72
2022/09/18 10:47:01;;;;;;;0.20;0.20;;;10.40;99.90;;;;;;4988481;28;20212;-72
2022/09/18 10:49:31;;;;;;;1.23;0.43;;;10.30;99.90;;;;;;4991482;28;20211;-72
2022/09/18 10:52:19;;;;;;;0.73;0.73;;;10.20;99.90;;;;;;4987917;28;20235;-72
2022/09/18 10:55:00;;;;;;;0.30;0.30;;;10.20;99.90;;;;;;4977864;28;20211;-74
2022/09/18 10:57:29;;;;;;;8.57;1.40;;;10.20;99.90;;;;;;4981142;28;20201;-72
2022/09/18 10:59:56;;;;;;;2.40;0.50;;;10.30;99.90;;;;;;4987572;28;20704;-72
2022/09/18 11:02:25;;;;;;;0.65;0.65;;;10.40;99.90;;;;;;4985015;28;20571;-71
2022/09/18 11:04:53;;;;;;;0.40;0.40;;;10.40;99.90;;;;;;4989027;28;20221;-71
2022/09/18 11:07:21;;;;;;;0.70;0.70;;;10.50;99.90;;;;;;4985682;28;20226;-71
2022/09/18 11:09:48;;;;;;;0.38;0.38;;;10.70;99.90;;;;;;4993282;28;20223;-71
2022/09/18 11:12:23;;;;;;;1.63;0.75;;;10.80;99.90;;;;;;4990219;28;20254;-70
2022/09/18 11:14:57;;;;;;;0.68;0.60;;;11.00;99.90;;;;;;4987905;28;20295;-71
2022/09/18 11:17:27;;;;;;;2.15;0.43;;;11.10;99.90;;;;;;4987592;28;20207;-71
2022/09/18 11:19:57;;;;;;;0.93;0.40;;;11.10;99.90;;;;;;4984530;28;20217;-71
2022/09/18 11:22:40;;;;;;;7.22;0.35;;;11.20;99.90;;;;;;4984118;28;20248;-71
2022/09/18 11:25:18;;;;;;;0.25;0.25;;;11.40;99.90;;;;;;4992620;28;20215;-71
2022/09/18 11:27:48;;;;;;;0.50;0.50;;;11.50;99.90;;;;;;4988060;28;20311;-71
2022/09/18 11:30:21;;;;;;;2.95;1.40;;;11.60;99.90;;;;;;4983582;28;20211;-71
2022/09/18 11:32:50;;;;;;;3.15;1.85;;;11.70;99.90;;;;;;4986946;28;20725;-71
2022/09/18 11:35:19;;;;;;;3.10;0.50;;;11.80;99.90;;;;;;4992431;28;20460;-70
2022/09/18 11:37:49;;;;;;;1.00;1.00;;;11.80;99.90;;;;;;4986165;28;20215;-70
2022/09/18 11:40:20;;;;;;;0.68;0.68;;;11.80;99.90;;;;;;4986792;28;20216;-71
2022/09/18 11:42:52;;;;;;;0.10;0.10;;;11.90;99.90;;;;;;4979535;28;20245;-71
2022/09/18 11:45:43;;;;;;;0.45;0.45;;;12.00;99.90;;;;;;4988119;28;20282;-72
2022/09/18 11:48:21;;;;;;;9.80;1.15;;;12.10;99.90;;;;;;4989433;28;20327;-71
2022/09/18 11:50:50;;;;;;;0.30;0.30;;;12.20;99.90;;;;;;4993260;28;20211;-70
2022/09/18 11:53:21;;;;;;;0.20;0.20;;;12.30;99.90;;;;;;4990473;28;20229;-71
2022/09/18 11:55:54;;;;;;;0.50;0.50;;;12.30;99.90;;;;;;4983972;28;20274;-71
2022/09/18 11:58:30;;;;;;;0.52;0.50;;;12.30;99.90;;;;;;5004996;28;20226;-72
2022/09/18 12:01:05;;;;;;;0.70;0.70;;;12.40;99.90;;;;;;5008075;28;20307;-69
2022/09/18 12:03:37;;;;;;;0.10;0.10;;;12.60;99.90;;;;;;4998086;28;21022;-72
2022/09/18 12:06:06;;;;;;;1.15;0.20;;;12.60;99.90;;;;;;4995368;28;20210;-72
2022/09/18 12:08:44;;;;;;;0.65;0.57;;;12.70;99.90;;;;;;4986543;28;20229;-70
2022/09/18 12:11:20;;;;;;;0.20;0.20;;;12.70;99.90;;;;;;4990282;28;20264;-71
2022/09/18 12:14:00;;;;;;;2.20;1.27;;;12.70;99.90;;;;;;4983200;28;20851;-73
2022/09/18 12:16:32;;;;;;;0.65;0.65;;;12.70;99.90;;;;;;4976045;28;20217;-72
2022/09/18 12:19:04;;;;;;;0.30;0.30;;;12.80;99.90;;;;;;4992386;28;20206;-71
2022/09/18 12:21:45;;;;;;;0.40;0.40;;;12.90;99.90;;;;;;4975667;28;20246;-72
2022/09/18 12:24:15;;;;;;;1.00;0.47;;;12.90;99.90;;;;;;4987673;28;20213;-73
2022/09/18 12:26:49;;;;;;;0.82;0.68;;;13.00;99.90;;;;;;4987202;28;20268;-72
2022/09/18 12:29:31;;;;;;;0.20;0.20;;;13.10;99.90;;;;;;4990155;28;20221;-72
2022/09/18 12:32:05;;;;;;;0.10;0.10;;;13.10;99.90;;;;;;4980981;28;20234;-72
2022/09/18 12:34:40;;;;;;;1.25;0.40;;;13.20;99.90;;;;;;4987592;28;20208;-70
2022/09/18 12:37:25;;;;;;;0.20;0.20;;;13.10;99.90;;;;;;4990747;28;20217;-71
2022/09/18 12:40:25;;;;;;;0.10;0.10;;;13.20;99.90;;;;;;4992670;28;20213;-71
2022/09/18 12:43:05;;;;;;;0.38;0.38;;;13.30;99.90;;;;;;4972745;28;20241;-70
2022/09/18 12:45:59;;;;;;;0.20;0.20;;;13.40;99.90;;;;;;4980856;28;20210;-70
2022/09/18 12:48:44;;;;;;;0.20;0.20;;;13.60;99.90;;;;;;4989871;28;20504;-71
2022/09/18 12:51:26;;;;;;;1.90;0.33;;;13.60;99.90;;;;;;4984716;28;20552;-72
2022/09/18 12:54:01;;;;;;;0.37;0.37;;;13.60;99.90;;;;;;4980851;28;20469;-72
2022/09/18 12:56:42;;;;;;;2.23;0.70;;;13.70;99.90;;;;;;4981938;28;20558;-69
2022/09/18 12:59:38;;;;;;;0.10;0.10;;;13.90;99.90;;;;;;4987723;28;20468;-71
2022/09/18 13:02:21;;;;;;;0.20;0.20;;;13.90;99.90;;;;;;4978966;28;20482;-71
2022/09/18 13:04:51;;;;;;;8.93;0.53;;;13.90;99.90;;;;;;4988328;28;20469;-71
2022/09/18 13:07:24;;;;;;;0.30;0.30;;;13.90;99.90;;;;;;4989484;28;20468;-71
2022/09/18 13:09:56;;;;;;;0.30;0.30;;;14.10;99.90;;;;;;4990897;28;20590;-71
2022/09/18 13:12:30;;;;;;;0.67;0.30;;;14.20;99.90;;;;;;4989412;28;20489;-71
2022/09/18 13:15:00;;;;;;;0.40;0.40;;;14.20;99.90;;;;;;4989386;28;20472;-71
2022/09/18 13:17:34;;;;;;;0.20;0.20;;;14.10;99.90;;;;;;4990251;28;20939;-71
2022/09/18 13:20:06;;;;;;;0.20;0.20;;;14.20;99.90;;;;;;4990624;28;20585;-68
2022/09/18 13:22:36;;;;;;;0.50;0.50;;;14.20;99.90;;;;;;4986199;28;20521;-66
2022/09/18 13:25:05;;;;;;;2.97;0.97;;;14.10;99.90;;;;;;4987050;28;20466;-71
2022/09/18 13:27:32;;;;;;;0.47;0.47;;;13.90;99.90;;;;;;4977346;28;20470;-72
2022/09/18 13:30:14;;;;;;;0.70;0.30;;;13.60;99.90;;;;;;4989088;28;20958;-72
2022/09/18 13:32:42;;;;;;;0.95;0.82;;;13.30;99.90;;;;;;4979274;28;20513;-71
2022/09/18 13:35:22;;;;;;;2.13;1.50;;;13.20;99.90;;;;;;4995221;28;20277;-72
2022/09/18 13:38:02;;;;;;;8.93;2.20;;;13.20;99.90;;;;;;4986980;28;20476;-69
2022/09/18 13:40:34;;;;;;;2.63;1.37;;;13.20;99.90;;;;;;4974600;28;20206;-69
2022/09/18 13:43:20;;;;;;;5.17;0.80;;;13.40;99.90;;;;;;4982549;28;20494;-71
2022/09/18 13:45:47;;;;;;;1.03;0.40;;;13.50;99.90;;;;;;4974236;28;20457;-69
2022/09/18 13:48:22;;;;;;;0.30;0.30;;;13.40;99.90;;;;;;4979283;28;21803;-71
2022/09/18 13:50:53;;;;;;;1.33;0.47;;;13.40;99.90;;;;;;4984969;28;20480;-68
2022/09/18 13:53:32;;;;;;;0.43;0.32;;;13.30;99.90;;;;;;4991255;28;20229;-72
2022/09/18 13:55:59;;;;;;;3.20;0.90;;;13.00;99.90;;;;;;4985682;28;20219;-73
2022/09/18 13:58:49;;;;;;;0.43;0.43;;;12.80;99.90;;;;;;4992954;28;20287;-73
2022/09/18 14:02:04;;;;;;;1.90;0.52;;;12.70;99.90;;;;;;4993494;28;20288;-69
2022/09/18 14:05:14;;;;;;;0.20;0.20;;;12.60;99.90;;;;;;4997856;28;20619;-72
2022/09/18 14:08:14;;;;;;;4.70;0.65;;;12.60;99.90;;;;;;4974612;28;20208;-72
2022/09/18 14:11:00;;;;;;;1.27;0.45;;;12.60;99.90;;;;;;4992659;28;20217;-72
2022/09/18 14:13:50;;;;;;;0.20;0.20;;;12.70;99.90;;;;;;4986482;28;20734;-70
2022/09/18 14:16:34;;;;;;;0.43;0.35;;;12.80;99.90;;;;;;4993933;28;20301;-72
2022/09/18 14:19:15;;;;;;;2.60;0.50;;;12.80;99.90;;;;;;4999542;28;20201;-72
2022/09/18 14:21:44;;;;;;;0.80;0.80;;;12.80;99.90;;;;;;4995529;28;20307;-69
2022/09/18 14:24:36;;;;;;;0.75;0.40;;;12.90;99.90;;;;;;5000739;28;20653;-72
2022/09/18 14:27:35;;;;;;;0.30;0.30;;;12.90;99.90;;;;;;4986213;28;20219;-71
2022/09/18 14:30:12;;;;;;;0.68;0.68;;;13.00;99.90;;;;;;4976524;28;20292;-69
2022/09/18 14:32:41;;;;;;;2.15;1.05;;;13.00;99.90;;;;;;4980052;28;20642;-71
2022/09/18 14:35:35;;;;;;;0.55;0.50;;;13.00;99.90;;;;;;4984397;28;20222;-70
2022/09/18 14:38:17;;;;;;;0.30;0.30;;;13.10;99.90;;;;;;4973007;28;20674;-72
2022/09/18 14:40:51;;;;;;;0.82;0.60;;;13.10;99.90;;;;;;4979699;28;20209;-72
2022/09/18 14:43:21;;;;;;;0.38;0.35;;;13.00;99.90;;;;;;4993585;28;20832;-70
2022/09/18 14:45:49;;;;;;;0.50;0.40;;;13.00;99.90;;;;;;4994516;28;20205;-70
2022/09/18 14:48:25;;;;;;;0.40;0.40;;;12.90;99.90;;;;;;4995078;28;20209;-70
2022/09/18 14:51:00;;;;;;;0.40;0.40;;;12.80;99.90;;;;;;4994778;28;20267;-70
2022/09/18 14:53:29;;;;;;;0.65;0.65;;;12.80;99.90;;;;;;4993326;28;20255;-72
2022/09/18 14:56:00;;;;;;;0.30;0.30;;;12.70;99.90;;;;;;4991089;28;20208;-73
2022/09/18 14:58:32;;;;;;;0.40;0.40;;;12.60;99.90;;;;;;4995066;28;20215;-69
2022/09/18 15:00:59;;;;;;;0.55;0.32;;;12.40;99.90;;;;;;4993616;28;20210;-70
2022/09/18 15:03:29;;;;;;;0.20;0.20;;;12.10;99.90;;;;;;4992053;28;20234;-70
2022/09/18 15:06:07;;;;;;;2.05;0.52;;;11.80;99.90;;;;;;4987362;28;20217;-70
2022/09/18 15:08:37;;;;;;;0.20;0.20;;;11.80;99.90;;;;;;4978574;28;20215;-70
2022/09/18 15:11:04;;;;;;;0.28;0.28;;;11.60;99.90;;;;;;4994204;28;20223;-70
2022/09/18 15:13:36;;;;;;;0.77;0.55;;;11.50;99.90;;;;;;4991149;28;20213;-71
2022/09/18 15:16:04;;;;;;;1.85;0.77;;;11.60;99.90;;;;;;4988480;28;20210;-71
2022/09/18 15:18:39;;;;;;;0.82;0.50;;;11.70;99.90;;;;;;4988847;28;20211;-71
2022/09/18 15:21:06;;;;;;;0.75;0.30;;;11.80;99.90;;;;;;4980832;28;20211;-71
2022/09/18 15:23:37;;;;;;;0.60;0.60;;;11.90;99.90;;;;;;4991306;28;20206;-71
2022/09/18 15:26:06;;;;;;;0.38;0.38;;;11.90;99.90;;;;;;4986705;28;20632;-70
2022/09/18 15:28:36;;;;;;;0.32;0.25;;;11.80;99.90;;;;;;4984666;28;20612;-71
2022/09/18 15:31:07;;;;;;;1.75;0.22;;;11.80;99.90;;;;;;4991583;28;20693;-71
2022/09/18 15:33:36;;;;;;;0.75;0.40;;;11.70;99.90;;;;;;4980931;28;20211;-69
2022/09/18 15:36:04;;;;;;;0.35;0.35;;;11.70;99.90;;;;;;4986665;28;20227;-71
2022/09/18 15:38:38;;;;;;;0.70;0.35;;;11.70;99.90;;;;;;4991581;28;20246;-71
2022/09/18 15:41:23;;;;;;;0.20;0.20;;;11.70;99.90;;;;;;4978032;28;20214;-70
2022/09/18 15:43:49;;;;;;;2.25;0.57;;;11.70;99.90;;;;;;4993312;28;20211;-72
2022/09/18 15:46:25;;;;;;;0.20;0.20;;;11.70;99.90;;;;;;4976392;28;20205;-71
2022/09/18 15:48:55;;;;;;;0.77;0.43;;;11.80;99.90;;;;;;4987589;28;20233;-70
2022/09/18 15:51:24;;;;;;;2.75;0.20;;;11.80;99.90;;;;;;4982244;28;20202;-67
2022/09/18 15:54:08;;;;;;;1.10;0.57;;;11.80;99.90;;;;;;4988053;28;20240;-71
2022/09/18 15:56:36;;;;;;;0.30;0.30;;;11.80;99.90;;;;;;4991139;28;20757;-70
2022/09/18 15:59:06;;;;;;;0.20;0.20;;;11.80;99.90;;;;;;4981290;28;20226;-71
2022/09/18 16:01:35;;;;;;;0.50;0.50;;;11.90;99.90;;;;;;4973083;28;20244;-70
2022/09/18 16:04:06;;;;;;;0.40;0.30;;;11.90;99.90;;;;;;4978835;28;20716;-71
2022/09/18 16:06:40;;;;;;;0.93;0.93;;;11.90;99.90;;;;;;4980819;28;20206;-69
2022/09/18 16:09:22;;;;;;;2.92;2.22;;;11.80;99.90;;;;;;4987039;28;20224;-69
2022/09/18 16:11:50;;;;;;;4.15;3.67;;;11.90;99.90;;;;;;4984446;28;20220;-70
2022/09/18 16:14:40;;;;;;;5.40;2.10;;;11.90;99.90;;;;;;4989828;28;20213;-69
2022/09/18 16:17:39;;;;;;;0.30;0.30;;;12.00;99.90;;;;;;4979872;28;20236;-68
2022/09/18 16:20:28;;;;;;;0.50;0.50;;;12.00;99.90;;;;;;4991486;28;20657;-70
2022/09/18 16:22:58;;;;;;;0.25;0.25;;;12.00;99.90;;;;;;4987438;28;20286;-70
2022/09/18 16:25:28;;;;;;;0.95;0.40;;;12.10;99.90;;;;;;4990095;28;20213;-70
2022/09/18 16:27:57;;;;;;;0.30;0.30;;;12.00;99.90;;;;;;4985574;28;20350;-69
2022/09/18 16:30:25;;;;;;;0.25;0.25;;;12.00;99.90;;;;;;4988487;28;20229;-71
2022/09/18 16:33:00;;;;;;;0.10;0.10;;;12.00;99.90;;;;;;4985830;28;20234;-71
2022/09/18 16:35:27;;;;;;;0.40;0.30;;;12.00;99.90;;;;;;4989575;28;20209;-70
2022/09/18 16:37:54;;;;;;;0.73;0.40;;;11.90;99.90;;;;;;4991556;28;20208;-69
2022/09/18 16:40:24;;;;;;;0.38;0.30;;;11.80;99.90;;;;;;4991378;28;20908;-68
2022/09/18 16:42:57;;;;;;;0.35;0.35;;;11.80;99.90;;;;;;4979165;28;20225;-69
2022/09/18 16:45:25;;;;;;;2.60;1.13;;;11.70;99.90;;;;;;4986837;28;20230;-70
2022/09/18 16:47:54;;;;;;;1.42;1.33;;;11.70;99.90;;;;;;4992296;28;20211;-70
2022/09/18 16:50:23;;;;;;;1.30;0.93;;;11.70;99.90;;;;;;4986358;28;20293;-70
2022/09/18 16:52:50;;;;;;;0.70;0.70;;;11.60;99.90;;;;;;4976930;28;20283;-70
2022/09/18 16:55:17;;;;;;;1.02;1.02;;;11.60;99.90;;;;;;4991571;28;20630;-71
2022/09/18 16:57:43;;;;;;;0.30;0.30;;;11.60;99.90;;;;;;4978964;28;20310;-70
2022/09/18 17:00:13;;;;;;;0.55;0.55;;;11.60;99.90;;;;;;4983453;28;20207;-71
2022/09/18 17:02:39;;;;;;;0.52;0.52;;;11.50;99.90;;;;;;4983381;28;20799;-70
2022/09/18 17:05:07;;;;;;;0.85;0.35;;;11.50;99.90;;;;;;4991169;28;20222;-70
2022/09/18 17:07:34;;;;;;;0.43;0.43;;;11.50;99.90;;;;;;4990212;28;20226;-67
2022/09/18 17:10:01;;;;;;;1.52;1.05;;;11.50;99.90;;;;;;4991053;28;20315;-70
2022/09/18 17:12:28;;;;;;;0.30;0.30;;;11.40;99.90;;;;;;4990567;28;20240;-68